createdAt,value
2023-03-11T00:03:04.344Z,0.40
2023-03-11T00:08:04.549Z,0.30
2023-03-11T00:13:04.197Z,0.40
2023-03-11T00:18:04.111Z,0.40
2023-03-11T00:23:04.083Z,0.40
2023-03-11T00:28:04.056Z,0.40
2023-03-11T00:33:03.891Z,0.40
2023-03-11T00:38:03.794Z,0.50
2023-03-11T00:43:03.803Z,0.50
2023-03-11T00:48:03.744Z,0.50
2023-03-11T00:53:03.668Z,0.50
2023-03-11T00:58:03.628Z,0.60
2023-03-11T01:03:03.530Z,0.70
2023-03-11T01:08:03.499Z,0.60
2023-03-11T01:13:03.413Z,0.60
2023-03-11T01:18:03.315Z,0.40
2023-03-11T01:23:03.264Z,0.40
2023-03-11T01:28:03.186Z,0.60
2023-03-11T01:33:03.218Z,0.40
2023-03-11T01:38:03.128Z,0.40
2023-03-11T01:43:03.044Z,0.50
2023-03-11T01:48:02.939Z,0.40
2023-03-11T01:53:02.876Z,0.50
2023-03-11T01:58:02.768Z,0.70
2023-03-11T02:03:02.770Z,0.70
2023-03-11T02:08:02.655Z,0.70
2023-03-11T02:13:02.715Z,0.80
2023-03-11T02:18:02.555Z,0.90
2023-03-11T02:23:02.577Z,1.00
2023-03-11T02:28:02.448Z,0.90
2023-03-11T02:33:02.354Z,1.10
2023-03-11T02:38:02.280Z,0.90
2023-03-11T02:43:02.305Z,1.00
2023-03-11T02:48:02.190Z,0.90
2023-03-11T02:53:02.158Z,1.00
2023-03-11T02:58:02.031Z,0.90
2023-03-11T03:03:02.054Z,1.00
2023-03-11T03:08:01.898Z,0.90
2023-03-11T03:13:01.899Z,1.00
2023-03-11T03:18:01.813Z,0.90
2023-03-11T03:23:01.753Z,1.10
2023-03-11T03:28:01.753Z,0.90
2023-03-11T03:33:01.596Z,1.10
2023-03-11T03:38:01.557Z,1.30
2023-03-11T03:43:01.524Z,1.30
2023-03-11T03:48:02.895Z,1.70
2023-03-11T03:53:01.352Z,2.00
2023-03-11T03:58:01.290Z,2.20
2023-03-11T04:03:01.276Z,2.50
2023-03-11T04:08:01.176Z,3.00
2023-03-11T04:13:01.114Z,2.80
2023-03-11T04:18:01.034Z,3.20
2023-03-11T04:23:01.025Z,3.60
2023-03-11T04:28:00.928Z,3.70
2023-03-11T04:33:00.830Z,3.90
2023-03-11T04:38:00.757Z,4.30
2023-03-11T04:43:00.726Z,4.60
2023-03-11T04:48:00.681Z,4.90
2023-03-11T04:53:00.679Z,5.10
2023-03-11T04:58:00.485Z,5.40
2023-03-11T05:03:00.475Z,5.00
2023-03-11T05:08:00.421Z,5.30
2023-03-11T05:13:00.307Z,4.60
2023-03-11T05:18:00.264Z,4.80
2023-03-11T05:23:00.219Z,4.00
2023-03-11T05:28:00.154Z,4.20
2023-03-11T05:33:00.097Z,4.10
2023-03-11T05:38:00.092Z,4.20
2023-03-11T05:42:59.928Z,4.20
2023-03-11T05:47:59.872Z,4.00
2023-03-11T05:52:59.814Z,4.10
2023-03-11T05:57:59.833Z,4.10
2023-03-11T06:02:59.698Z,4.40
2023-03-11T06:07:59.665Z,4.30
2023-03-11T06:12:59.519Z,4.50
2023-03-11T06:17:59.694Z,4.70
2023-03-11T06:22:59.396Z,5.10
2023-03-11T06:27:59.470Z,5.40
2023-03-11T06:32:59.477Z,5.90
2023-03-11T06:37:59.227Z,6.10
2023-03-11T06:42:59.736Z,6.10
2023-03-11T06:47:59.083Z,6.40
2023-03-11T06:52:59.059Z,6.50
2023-03-11T06:57:59.014Z,7.30
2023-03-11T07:02:58.879Z,6.70
2023-03-11T07:07:58.884Z,6.40
2023-03-11T07:12:58.808Z,7.30
2023-03-11T07:17:58.718Z,7.50
2023-03-11T07:22:58.662Z,6.70
2023-03-11T07:27:58.561Z,6.60
2023-03-11T07:33:02.319Z,5.50
2023-03-11T07:37:58.626Z,6.20
2023-03-11T07:42:58.436Z,6.40
2023-03-11T07:47:59.114Z,6.30
2023-03-11T07:52:58.251Z,7.20
2023-03-11T07:57:58.165Z,6.70
2023-03-11T08:02:58.237Z,7.00
2023-03-11T08:07:58.018Z,7.10
2023-03-11T08:12:58.006Z,6.20
2023-03-11T08:17:58.002Z,6.30
2023-03-11T08:22:58.604Z,6.80
2023-03-11T08:27:57.804Z,7.40
2023-03-11T08:32:57.732Z,7.80
2023-03-11T08:37:57.673Z,7.80
2023-03-11T08:42:57.571Z,8.00
2023-03-11T08:47:57.611Z,8.70
2023-03-11T08:52:57.463Z,8.70
2023-03-11T08:57:57.418Z,9.40
2023-03-11T09:02:57.393Z,8.50
2023-03-11T09:07:57.279Z,8.30
2023-03-11T09:12:57.214Z,8.30
2023-03-11T09:17:57.139Z,8.30
2023-03-11T09:22:57.145Z,8.40
2023-03-11T09:27:57.064Z,8.50
2023-03-11T09:32:57.061Z,8.90
2023-03-11T09:37:56.962Z,8.90
2023-03-11T09:42:56.823Z,9.30
2023-03-11T09:47:56.799Z,9.00
2023-03-11T09:52:56.741Z,9.60
2023-03-11T09:57:56.669Z,9.00
2023-03-11T10:02:56.662Z,8.80
2023-03-11T10:07:56.585Z,8.80
2023-03-11T10:12:56.453Z,7.80
2023-03-11T10:17:56.382Z,7.90
2023-03-11T10:22:56.411Z,8.50
2023-03-11T10:27:56.253Z,8.40
2023-03-11T10:32:56.248Z,7.90
2023-03-11T10:37:56.119Z,7.60
2023-03-11T10:42:56.040Z,7.80
2023-03-11T10:47:56.000Z,7.50
2023-03-11T10:52:55.927Z,7.20
2023-03-11T10:57:55.904Z,6.80
2023-03-11T11:02:55.794Z,7.30
2023-03-11T11:07:55.761Z,7.10
2023-03-11T11:12:55.692Z,6.90
2023-03-11T11:17:55.627Z,6.90
2023-03-11T11:22:55.567Z,7.60
2023-03-11T11:27:55.474Z,7.80
2023-03-11T11:32:55.622Z,6.70
2023-03-11T11:37:55.368Z,7.10
2023-03-11T11:42:55.491Z,6.50
2023-03-11T11:47:55.316Z,5.60
2023-03-11T11:52:55.142Z,5.90
2023-03-11T11:57:55.076Z,5.40
2023-03-11T12:02:55.013Z,4.90
2023-03-11T12:07:55.164Z,5.20
2023-03-11T12:12:54.872Z,5.40
2023-03-11T12:17:54.886Z,5.10
2023-03-11T12:22:54.765Z,6.00
2023-03-11T12:27:54.772Z,5.60
2023-03-11T12:32:54.775Z,6.00
2023-03-11T12:37:54.577Z,5.60
2023-03-11T12:42:54.523Z,5.10
2023-03-11T12:47:54.531Z,5.10
2023-03-11T12:52:54.417Z,4.90
2023-03-11T12:57:54.342Z,5.60
2023-03-11T13:02:54.432Z,5.90
2023-03-11T13:07:54.228Z,5.90
2023-03-11T13:12:54.146Z,6.10
2023-03-11T13:17:54.083Z,6.90
2023-03-11T13:22:54.016Z,6.20
2023-03-11T13:27:53.924Z,6.20
2023-03-11T13:32:54.648Z,5.50
2023-03-11T13:37:53.934Z,5.80
2023-03-11T13:42:53.868Z,6.30
2023-03-11T13:47:53.716Z,5.50
2023-03-11T13:52:53.594Z,5.10
2023-03-11T13:57:53.568Z,5.40
2023-03-11T14:02:53.459Z,4.90
2023-03-11T14:07:53.405Z,4.80
2023-03-11T14:12:53.324Z,4.60
2023-03-11T14:17:53.255Z,5.00
2023-03-11T14:22:53.222Z,4.00
2023-03-11T14:27:53.154Z,4.00
2023-03-11T14:32:54.341Z,4.20
2023-03-11T14:37:54.293Z,4.10
2023-03-11T14:42:52.942Z,4.20
2023-03-11T14:47:53.345Z,4.50
2023-03-11T14:52:52.831Z,4.10
2023-03-11T14:57:52.772Z,4.40
2023-03-11T15:02:52.785Z,4.30
2023-03-11T15:07:52.662Z,4.10
2023-03-11T15:12:52.574Z,4.50
2023-03-11T15:17:52.543Z,4.30
2023-03-11T15:22:52.714Z,4.70
2023-03-11T15:27:52.419Z,4.10
2023-03-11T15:32:52.361Z,4.20
2023-03-11T15:37:52.263Z,4.00
2023-03-11T15:42:52.502Z,4.20
2023-03-11T15:47:52.117Z,3.70
2023-03-11T15:52:52.029Z,3.80
2023-03-11T15:57:52.217Z,3.50
2023-03-11T16:02:51.996Z,3.60
2023-03-11T16:07:52.047Z,3.70
2023-03-11T16:12:51.771Z,4.00
2023-03-11T16:17:51.725Z,3.90
2023-03-11T16:22:51.694Z,3.80
2023-03-11T16:27:51.605Z,3.90
2023-03-11T16:32:51.640Z,4.00
2023-03-11T16:37:51.555Z,4.20
2023-03-11T16:42:51.449Z,4.50
2023-03-11T16:47:51.359Z,4.20
2023-03-11T16:52:51.622Z,4.70
2023-03-11T16:57:51.404Z,5.00
2023-03-11T17:02:51.109Z,4.70
2023-03-11T17:07:51.124Z,4.80
2023-03-11T17:12:51.107Z,4.60
2023-03-11T17:17:51.008Z,4.80
2023-03-11T17:22:50.983Z,4.80
2023-03-11T17:27:50.912Z,4.70
2023-03-11T17:32:50.859Z,5.60
2023-03-11T17:37:51.009Z,6.10
2023-03-11T17:42:50.714Z,6.40
2023-03-11T17:47:50.610Z,6.00
2023-03-11T17:52:50.589Z,5.80
2023-03-11T17:57:50.446Z,5.90
2023-03-11T18:02:50.399Z,6.20
2023-03-11T18:07:50.356Z,6.00
2023-03-11T18:12:50.274Z,5.80
2023-03-11T18:17:50.161Z,6.30
2023-03-11T18:22:50.126Z,7.00
2023-03-11T18:27:50.098Z,7.20
2023-03-11T18:32:50.043Z,7.20
2023-03-11T18:37:49.925Z,7.80
2023-03-11T18:42:49.900Z,8.30
2023-03-11T18:47:49.820Z,8.60
2023-03-11T18:52:49.795Z,8.40
2023-03-11T18:57:49.731Z,7.70
2023-03-11T19:02:49.693Z,7.80
2023-03-11T19:07:49.577Z,8.90
2023-03-11T19:12:49.609Z,8.90
2023-03-11T19:18:00.662Z,10.30
2023-03-11T19:22:50.364Z,9.60
2023-03-11T19:27:49.329Z,10.00
2023-03-11T19:32:49.370Z,8.70
2023-03-11T19:37:49.196Z,8.70
2023-03-11T19:42:49.131Z,8.80
2023-03-11T19:47:49.041Z,8.90
2023-03-11T19:52:49.017Z,8.80
2023-03-11T19:57:48.925Z,7.90
2023-03-11T20:02:48.886Z,8.50
2023-03-11T20:07:48.806Z,9.00
2023-03-11T20:13:01.400Z,9.30
2023-03-11T20:17:50.811Z,9.20
2023-03-11T20:22:48.639Z,10.60
2023-03-11T20:27:48.562Z,10.70
2023-03-11T20:32:48.860Z,11.00
2023-03-11T20:37:48.485Z,10.80
2023-03-11T20:42:48.446Z,9.30
2023-03-11T20:47:48.447Z,8.40
2023-03-11T20:52:48.206Z,7.30
2023-03-11T20:57:48.255Z,6.40
2023-03-11T21:02:48.194Z,6.90
2023-03-11T21:07:48.048Z,9.60
2023-03-11T21:12:48.235Z,10.00
2023-03-11T21:17:47.906Z,10.00
2023-03-11T21:22:47.932Z,10.30
2023-03-11T21:27:47.805Z,10.20
2023-03-11T21:32:47.905Z,10.20
2023-03-11T21:37:47.738Z,10.80
2023-03-11T21:42:47.735Z,11.50
2023-03-11T21:47:47.659Z,10.50
2023-03-11T21:52:47.492Z,10.20
2023-03-11T21:57:47.380Z,10.40
2023-03-11T22:02:47.348Z,10.30
2023-03-11T22:07:47.445Z,10.20
2023-03-11T22:12:47.264Z,9.90
2023-03-11T22:17:47.471Z,10.20
2023-03-11T22:22:47.074Z,9.10
2023-03-11T22:27:47.055Z,8.10
2023-03-11T22:32:47.093Z,8.10
2023-03-11T22:37:46.969Z,7.60
2023-03-11T22:42:46.875Z,7.70
2023-03-11T22:47:46.820Z,7.80
2023-03-11T22:52:46.652Z,7.60
2023-03-11T22:57:46.590Z,6.70
2023-03-11T23:02:46.717Z,7.10
2023-03-11T23:07:46.476Z,6.70
2023-03-11T23:12:46.423Z,7.00
2023-03-11T23:17:46.407Z,7.50
2023-03-11T23:22:46.276Z,8.10
2023-03-11T23:27:46.227Z,8.20
2023-03-11T23:32:46.231Z,8.40
2023-03-11T23:37:46.085Z,8.70
2023-03-11T23:42:46.033Z,8.80
2023-03-11T23:47:46.030Z,9.00
2023-03-11T23:52:45.941Z,8.40
2023-03-11T23:57:45.903Z,8.50
